Estación Meteorológica Peña el Pijo (Robertgarden) [ 09/22/18 22:15:44 CEST ]

Fecha Hora Presion(HPa) Temp (°C) Humedad % Rocio (°C) Viento ( m/s) Direccion Lluvia 1Hora(mm) Lluvia 24H(mm) LLuvia Total(mm)
2018-Jul-05 01:01:57 1013.000 14.4 54 5.2         269.36
2018-Jul-05 02:01:45 1012.900 13.5 59 5.6         269.36
2018-Jul-05 03:01:41 1012.800 12.3 64 5.7         269.36
2018-Jul-05 04:01:39 1012.800 11.4 67 5.5         269.36
2018-Jul-05 05:01:43 1012.900 10.7 68 5.0         269.36
2018-Jul-05 06:01:41 1013.200 10.6 71 5.6         269.36
2018-Jul-05 07:01:40 1013.300 10.1 71 5.1         269.36
2018-Jul-05 08:01:49 1013.500 13.1 75 8.7         269.36
2018-Jul-05 09:01:58 1013.500 19.3 57 10.6         269.36
2018-Jul-05 10:01:56 1013.600 21.8 49 10.6         269.36
2018-Jul-05 11:01:43 1013.400 23.9 41 9.8         269.36
2018-Jul-05 12:01:46 1013.700 27.0 35 10.1         269.36
2018-Jul-05 13:02:03 1013.400 28.8 30 9.5         269.36
2018-Jul-05 14:01:37 1013.200 29.4 29 9.5         269.36
2018-Jul-05 15:01:40 1012.700 30.6 27 9.3         269.36
2018-Jul-05 16:01:39 1012.400 31.8 25 9.1 2.2 S     269.36
2018-Jul-05 17:01:58 1011.900 32.9 24 9.4         269.36
2018-Jul-05 18:01:50 1011.800 31.4 25 8.8         269.36
2018-Jul-05 19:01:55 1011.500 29.9 26 8.1         269.36
2018-Jul-05 20:01:50 1011.600 28.4 28 8.0         269.36
2018-Jul-05 21:01:43 1012.200 24.8 31 6.5         269.36
2018-Jul-05 22:02:00 1012.800 20.5 41 6.8         269.36
2018-Jul-05 23:02:02 1013.800 17.3 49 6.4         269.36

Temperatura Máxima:32°    Temperatura Mínima:10°
Presión Máxima:1013.800 Hpa    Presión Mínima:1011.500 Hpa


Volver